sensor_id;sensor_type;location;lat;lon;timestamp;pressure;altitude;pressure_sealevel;temperature;humidity
67818;BME280;54614;47.576;7.524;2023-04-30T00:00:22;98642.06;;;26.20;37.47
67818;BME280;54614;47.576;7.524;2023-04-30T00:02:47;98640.63;;;26.18;37.82
67818;BME280;54614;47.576;7.524;2023-04-30T00:05:13;98640.84;;;26.16;37.68
67818;BME280;54614;47.576;7.524;2023-04-30T00:07:39;98639.19;;;26.15;37.51
67818;BME280;54614;47.576;7.524;2023-04-30T00:10:10;98635.00;;;26.19;37.65
67818;BME280;54614;47.576;7.524;2023-04-30T00:12:37;98628.84;;;26.12;37.93
67818;BME280;54614;47.576;7.524;2023-04-30T00:15:04;98629.91;;;26.11;37.73
67818;BME280;54614;47.576;7.524;2023-04-30T00:17:29;98631.38;;;26.07;37.83
67818;BME280;54614;47.576;7.524;2023-04-30T00:19:55;98632.81;;;26.10;37.77
67818;BME280;54614;47.576;7.524;2023-04-30T00:22:21;98628.03;;;26.12;37.67
67818;BME280;54614;47.576;7.524;2023-04-30T00:24:47;98625.16;;;26.07;37.87
67818;BME280;54614;47.576;7.524;2023-04-30T00:27:13;98624.13;;;26.08;37.76
67818;BME280;54614;47.576;7.524;2023-04-30T00:29:39;98633.88;;;26.09;37.82
67818;BME280;54614;47.576;7.524;2023-04-30T00:32:05;98629.31;;;26.09;37.92
67818;BME280;54614;47.576;7.524;2023-04-30T00:34:31;98623.69;;;26.11;37.79
67818;BME280;54614;47.576;7.524;2023-04-30T00:36:57;98616.19;;;26.13;37.93
67818;BME280;54614;47.576;7.524;2023-04-30T00:39:23;98611.31;;;26.03;37.80
67818;BME280;54614;47.576;7.524;2023-04-30T00:41:48;98610.88;;;26.06;37.60
67818;BME280;54614;47.576;7.524;2023-04-30T00:44:14;98613.13;;;26.09;37.98
67818;BME280;54614;47.576;7.524;2023-04-30T00:46:40;98614.78;;;26.10;37.89
67818;BME280;54614;47.576;7.524;2023-04-30T00:49:06;98612.69;;;26.12;37.96
67818;BME280;54614;47.576;7.524;2023-04-30T00:51:34;98603.78;;;26.12;37.75
67818;BME280;54614;47.576;7.524;2023-04-30T00:54:01;98604.81;;;26.11;37.60
67818;BME280;54614;47.576;7.524;2023-04-30T00:56:28;98604.81;;;26.11;38.00
67818;BME280;54614;47.576;7.524;2023-04-30T00:58:56;98593.22;;;26.10;37.95
67818;BME280;54614;47.576;7.524;2023-04-30T01:01:26;98592.16;;;26.11;37.80
67818;BME280;54614;47.576;7.524;2023-04-30T01:03:56;98591.94;;;26.13;37.51
67818;BME280;54614;47.576;7.524;2023-04-30T01:06:24;98591.94;;;26.13;37.88
67818;BME280;54614;47.576;7.524;2023-04-30T01:08:52;98588.03;;;26.09;37.87
67818;BME280;54614;47.576;7.524;2023-04-30T01:14:27;98586.56;;;26.13;37.71
67818;BME280;54614;47.576;7.524;2023-04-30T01:17:36;98587.38;;;26.13;37.92
67818;BME280;54614;47.576;7.524;2023-04-30T01:20:07;98590.28;;;26.12;37.73
67818;BME280;54614;47.576;7.524;2023-04-30T01:22:54;98577.63;;;26.12;37.55
67818;BME280;54614;47.576;7.524;2023-04-30T01:28:17;98577.63;;;26.12;37.91
67818;BME280;54614;47.576;7.524;2023-04-30T01:30:49;98578.75;;;26.05;38.08
67818;BME280;54614;47.576;7.524;2023-04-30T01:33:15;98578.47;;;26.13;37.87
67818;BME280;54614;47.576;7.524;2023-04-30T01:38:48;98582.44;;;26.10;38.09
67818;BME280;54614;47.576;7.524;2023-04-30T01:50:13;98584.28;;;26.10;37.96
67818;BME280;54614;47.576;7.524;2023-04-30T01:52:55;98581.22;;;26.06;38.00
67818;BME280;54614;47.576;7.524;2023-04-30T01:58:14;98582.19;;;26.12;37.64
67818;BME280;54614;47.576;7.524;2023-04-30T02:00:40;98579.72;;;26.10;37.83
67818;BME280;54614;47.576;7.524;2023-04-30T02:03:06;98578.31;;;26.08;37.82
67818;BME280;54614;47.576;7.524;2023-04-30T02:05:32;98573.28;;;26.11;37.92
67818;BME280;54614;47.576;7.524;2023-04-30T02:07:58;98574.94;;;26.12;37.82
67818;BME280;54614;47.576;7.524;2023-04-30T02:10:26;98577.03;;;26.10;37.84
67818;BME280;54614;47.576;7.524;2023-04-30T02:12:52;98577.03;;;26.10;37.83
67818;BME280;54614;47.576;7.524;2023-04-30T02:15:18;98574.13;;;26.12;37.76
67818;BME280;54614;47.576;7.524;2023-04-30T02:17:44;98572.09;;;26.07;37.72
67818;BME280;54614;47.576;7.524;2023-04-30T02:20:10;98575.38;;;26.09;37.65
67818;BME280;54614;47.576;7.524;2023-04-30T02:22:37;98580.56;;;26.11;37.64
67818;BME280;54614;47.576;7.524;2023-04-30T02:25:03;98577.47;;;26.07;37.94
67818;BME280;54614;47.576;7.524;2023-04-30T02:27:31;98569.63;;;26.06;37.67
67818;BME280;54614;47.576;7.524;2023-04-30T02:29:59;98575.81;;;26.06;37.75
67818;BME280;54614;47.576;7.524;2023-04-30T02:32:25;98569.16;;;26.09;37.70
67818;BME280;54614;47.576;7.524;2023-04-30T02:34:51;98564.59;;;26.09;37.63
67818;BME280;54614;47.576;7.524;2023-04-30T02:37:17;98573.34;;;26.05;37.95
67818;BME280;54614;47.576;7.524;2023-04-30T02:39:43;98567.28;;;26.09;37.84
67818;BME280;54614;47.576;7.524;2023-04-30T02:42:08;98570.00;;;26.09;37.65
67818;BME280;54614;47.576;7.524;2023-04-30T02:44:34;98567.28;;;26.09;37.67
67818;BME280;54614;47.576;7.524;2023-04-30T02:47:00;98564.22;;;26.06;37.56
67818;BME280;54614;47.576;7.524;2023-04-30T02:49:27;98565.25;;;26.05;37.68
67818;BME280;54614;47.576;7.524;2023-04-30T02:51:53;98562.13;;;26.08;37.59
67818;BME280;54614;47.576;7.524;2023-04-30T02:54:19;98565.88;;;26.07;37.68
67818;BME280;54614;47.576;7.524;2023-04-30T02:56:46;98561.91;;;26.09;37.70
67818;BME280;54614;47.576;7.524;2023-04-30T02:59:12;98572.09;;;26.07;37.65
67818;BME280;54614;47.576;7.524;2023-04-30T03:01:38;98571.47;;;26.05;37.52
67818;BME280;54614;47.576;7.524;2023-04-30T03:04:04;98569.16;;;26.09;37.48
67818;BME280;54614;47.576;7.524;2023-04-30T03:06:31;98565.44;;;26.10;37.87
67818;BME280;54614;47.576;7.524;2023-04-30T03:08:57;98576.22;;;26.10;37.88
67818;BME280;54614;47.576;7.524;2023-04-30T03:11:23;98571.66;;;26.10;37.50
67818;BME280;54614;47.576;7.524;2023-04-30T03:13:49;98566.69;;;26.07;37.62
67818;BME280;54614;47.576;7.524;2023-04-30T03:16:19;98565.03;;;26.06;37.49
67818;BME280;54614;47.576;7.524;2023-04-30T03:18:49;98569.63;;;26.06;37.64
67818;BME280;54614;47.576;7.524;2023-04-30T03:21:15;98566.91;;;26.06;37.76
67818;BME280;54614;47.576;7.524;2023-04-30T03:23:41;98568.41;;;26.01;37.61
67818;BME280;54614;47.576;7.524;2023-04-30T03:26:07;98571.72;;;26.04;37.61
67818;BME280;54614;47.576;7.524;2023-04-30T03:28:33;98570.66;;;26.05;37.61
67818;BME280;54614;47.576;7.524;2023-04-30T03:31:01;98571.25;;;26.07;37.65
67818;BME280;54614;47.576;7.524;2023-04-30T03:33:33;98570.00;;;26.09;37.79
67818;BME280;54614;47.576;7.524;2023-04-30T03:35:59;98566.91;;;26.06;37.74
67818;BME280;54614;47.576;7.524;2023-04-30T03:38:24;98570.66;;;26.05;37.88
67818;BME280;54614;47.576;7.524;2023-04-30T03:40:50;98555.75;;;26.02;37.57
67818;BME280;54614;47.576;7.524;2023-04-30T03:43:16;98556.81;;;26.01;37.96
67818;BME280;54614;47.576;7.524;2023-04-30T03:45:42;98564.44;;;26.04;37.79
67818;BME280;54614;47.576;7.524;2023-04-30T03:48:08;98559.88;;;26.05;37.76
67818;BME280;54614;47.576;7.524;2023-04-30T03:50:34;98565.03;;;26.06;37.68
67818;BME280;54614;47.576;7.524;2023-04-30T03:53:00;98565.03;;;26.06;37.62
67818;BME280;54614;47.576;7.524;2023-04-30T03:55:26;98561.16;;;26.02;37.71
67818;BME280;54614;47.576;7.524;2023-04-30T03:57:52;98559.50;;;26.01;37.81
67818;BME280;54614;47.576;7.524;2023-04-30T04:00:18;98560.09;;;26.03;37.54
67818;BME280;54614;47.576;7.524;2023-04-30T04:02:44;98562.59;;;25.98;37.72
67818;BME280;54614;47.576;7.524;2023-04-30T04:05:10;98566.94;;;25.99;37.76
67818;BME280;54614;47.576;7.524;2023-04-30T04:07:35;98562.81;;;25.96;37.88
67818;BME280;54614;47.576;7.524;2023-04-30T04:10:01;98562.59;;;25.98;37.61
67818;BME280;54614;47.576;7.524;2023-04-30T04:12:28;98562.59;;;25.98;37.75
67818;BME280;54614;47.576;7.524;2023-04-30T04:14:53;98566.94;;;25.99;37.63
67818;BME280;54614;47.576;7.524;2023-04-30T04:17:19;98565.91;;;26.00;37.66
67818;BME280;54614;47.576;7.524;2023-04-30T04:19:45;98565.91;;;26.00;37.56
67818;BME280;54614;47.576;7.524;2023-04-30T04:22:11;98561.16;;;26.02;37.83
67818;BME280;54614;47.576;7.524;2023-04-30T04:24:36;98563.44;;;25.98;37.71
67818;BME280;54614;47.576;7.524;2023-04-30T04:27:03;98558.44;;;26.02;37.71
67818;BME280;54614;47.576;7.524;2023-04-30T04:29:28;98565.06;;;25.99;37.56
67818;BME280;54614;47.576;7.524;2023-04-30T04:31:54;98561.97;;;26.02;37.61
67818;BME280;54614;47.576;7.524;2023-04-30T04:34:21;98558.03;;;25.98;37.74
67818;BME280;54614;47.576;7.524;2023-04-30T04:36:47;98565.28;;;25.98;37.83
67818;BME280;54614;47.576;7.524;2023-04-30T04:39:12;98560.13;;;25.96;37.93
67818;BME280;54614;47.576;7.524;2023-04-30T04:41:39;98563.44;;;25.98;37.82
67818;BME280;54614;47.576;7.524;2023-04-30T04:44:05;98566.94;;;25.99;37.78
67818;BME280;54614;47.576;7.524;2023-04-30T04:46:33;98562.59;;;25.98;37.68
67818;BME280;54614;47.576;7.524;2023-04-30T04:48:59;98559.09;;;25.97;37.84
67818;BME280;54614;47.576;7.524;2023-04-30T04:51:25;98558.03;;;25.98;37.90
67818;BME280;54614;47.576;7.524;2023-04-30T04:53:51;98562.81;;;25.96;37.64
67818;BME280;54614;47.576;7.524;2023-04-30T04:56:17;98558.25;;;25.97;37.92
67818;BME280;54614;47.576;7.524;2023-04-30T04:58:44;98558.25;;;25.97;37.83
67818;BME280;54614;47.576;7.524;2023-04-30T05:01:10;98564.47;;;25.97;37.62
67818;BME280;54614;47.576;7.524;2023-04-30T05:03:36;98561.63;;;25.92;37.82
67818;BME280;54614;47.576;7.524;2023-04-30T05:06:02;98557.06;;;25.93;37.84
67818;BME280;54614;47.576;7.524;2023-04-30T05:08:28;98553.91;;;25.96;37.64
67818;BME280;54614;47.576;7.524;2023-04-30T05:10:54;98562.88;;;25.90;37.89
67818;BME280;54614;47.576;7.524;2023-04-30T05:13:20;98556.00;;;25.94;37.76
67818;BME280;54614;47.576;7.524;2023-04-30T05:15:49;98565.75;;;25.95;37.84
67818;BME280;54614;47.576;7.524;2023-04-30T05:18:15;98560.34;;;25.95;37.63
67818;BME280;54614;47.576;7.524;2023-04-30T05:20:41;98572.16;;;25.94;38.09
67818;BME280;54614;47.576;7.524;2023-04-30T05:23:07;98571.34;;;25.93;37.99
67818;BME280;54614;47.576;7.524;2023-04-30T05:25:34;98574.03;;;25.93;37.83
67818;BME280;54614;47.576;7.524;2023-04-30T05:28:00;98566.19;;;25.92;37.98
67818;BME280;54614;47.576;7.524;2023-04-30T05:30:26;98564.31;;;25.92;37.91
67818;BME280;54614;47.576;7.524;2023-04-30T05:32:52;98564.75;;;25.89;37.79
67818;BME280;54614;47.576;7.524;2023-04-30T05:35:18;98562.66;;;25.91;37.59
67818;BME280;54614;47.576;7.524;2023-04-30T05:37:45;98566.47;;;25.84;38.07
67818;BME280;54614;47.576;7.524;2023-04-30T05:40:11;98564.75;;;25.89;38.05
67818;BME280;54614;47.576;7.524;2023-04-30T05:42:37;98565.56;;;25.90;37.68
67818;BME280;54614;47.576;7.524;2023-04-30T05:45:06;98561.22;;;25.89;37.91
67818;BME280;54614;47.576;7.524;2023-04-30T05:47:32;98569.75;;;25.86;37.89
67818;BME280;54614;47.576;7.524;2023-04-30T05:49:58;98567.22;;;25.91;37.83
67818;BME280;54614;47.576;7.524;2023-04-30T05:52:24;98565.97;;;25.93;37.76
67818;BME280;54614;47.576;7.524;2023-04-30T05:54:50;98573.59;;;25.96;38.01
67818;BME280;54614;47.576;7.524;2023-04-30T05:57:16;98563.03;;;25.95;38.22
67818;BME280;54614;47.576;7.524;2023-04-30T05:59:42;98564.91;;;25.94;37.97
67818;BME280;54614;47.576;7.524;2023-04-30T06:02:08;98572.16;;;25.94;38.39
67818;BME280;54614;47.576;7.524;2023-04-30T06:04:34;98568.81;;;25.98;37.97
67818;BME280;54614;47.576;7.524;2023-04-30T06:07:00;98569.03;;;25.97;37.78
67818;BME280;54614;47.576;7.524;2023-04-30T06:09:26;98563.44;;;25.98;38.04
67818;BME280;54614;47.576;7.524;2023-04-30T06:11:52;98569.44;;;26.00;38.04
67818;BME280;54614;47.576;7.524;2023-04-30T06:14:18;98561.38;;;26.00;37.84
67818;BME280;54614;47.576;7.524;2023-04-30T06:16:46;98555.97;;;26.00;37.87
67818;BME280;54614;47.576;7.524;2023-04-30T06:19:14;98567.78;;;25.99;37.75
67818;BME280;54614;47.576;7.524;2023-04-30T06:21:39;98567.22;;;25.91;37.99
67818;BME280;54614;47.576;7.524;2023-04-30T06:24:08;98562.19;;;26.01;37.91
67818;BME280;54614;47.576;7.524;2023-04-30T06:26:34;98554.72;;;26.03;37.68
67818;BME280;54614;47.576;7.524;2023-04-30T06:29:00;98549.91;;;26.05;38.01
67818;BME280;54614;47.576;7.524;2023-04-30T06:31:26;98555.91;;;26.07;37.93
67818;BME280;54614;47.576;7.524;2023-04-30T06:33:52;98560.69;;;26.05;37.75
67818;BME280;54614;47.576;7.524;2023-04-30T06:36:17;98557.19;;;26.05;37.92
67818;BME280;54614;47.576;7.524;2023-04-30T06:38:45;98565.25;;;26.05;37.67
67818;BME280;54614;47.576;7.524;2023-04-30T06:41:11;98554.09;;;26.01;37.84
67818;BME280;54614;47.576;7.524;2023-04-30T06:43:37;98556.13;;;26.06;37.79
67818;BME280;54614;47.576;7.524;2023-04-30T06:46:03;98561.31;;;26.07;37.62
67818;BME280;54614;47.576;7.524;2023-04-30T06:48:31;98566.69;;;26.07;37.61
67818;BME280;54614;47.576;7.524;2023-04-30T06:50:58;98559.66;;;26.06;37.74
67818;BME280;54614;47.576;7.524;2023-04-30T06:53:24;98571.25;;;26.07;37.74
67818;BME280;54614;47.576;7.524;2023-04-30T06:55:50;98560.69;;;26.05;37.85
67818;BME280;54614;47.576;7.524;2023-04-30T06:58:17;98561.16;;;26.02;37.91
67818;BME280;54614;47.576;7.524;2023-04-30T07:00:44;98561.75;;;26.04;37.81
67818;BME280;54614;47.576;7.524;2023-04-30T07:03:09;98561.53;;;26.06;37.71
67818;BME280;54614;47.576;7.524;2023-04-30T07:05:35;98566.31;;;26.04;37.78
67818;BME280;54614;47.576;7.524;2023-04-30T07:08:02;98558.31;;;25.90;38.22
67818;BME280;54614;47.576;7.524;2023-04-30T07:10:29;98558.91;;;25.92;38.40
67818;BME280;54614;47.576;7.524;2023-04-30T07:12:56;98558.03;;;25.98;38.26
67818;BME280;54614;47.576;7.524;2023-04-30T07:15:22;98559.91;;;25.98;38.06
67818;BME280;54614;47.576;7.524;2023-04-30T07:17:48;98553.47;;;25.99;38.09
67818;BME280;54614;47.576;7.524;2023-04-30T07:20:14;98553.91;;;25.96;38.25
67818;BME280;54614;47.576;7.524;2023-04-30T07:22:43;98555.97;;;26.00;37.79
67818;BME280;54614;47.576;7.524;2023-04-30T07:25:13;98565.28;;;25.98;37.91
67818;BME280;54614;47.576;7.524;2023-04-30T07:27:40;98558.09;;;25.92;38.92
67818;BME280;54614;47.576;7.524;2023-04-30T07:30:07;98562.88;;;25.65;40.10
67818;BME280;54614;47.576;7.524;2023-04-30T07:32:35;98552.50;;;25.62;40.69
67818;BME280;54614;47.576;7.524;2023-04-30T07:35:02;98557.50;;;25.58;40.71
67818;BME280;54614;47.576;7.524;2023-04-30T07:37:28;98568.28;;;25.58;40.83
67818;BME280;54614;47.576;7.524;2023-04-30T07:39:54;98567.84;;;25.61;40.35
67818;BME280;54614;47.576;7.524;2023-04-30T07:42:20;98568.88;;;25.92;39.30
67818;BME280;54614;47.576;7.524;2023-04-30T07:44:46;98572.16;;;25.94;38.85
67818;BME280;54614;47.576;7.524;2023-04-30T07:47:13;98574.78;;;26.07;38.79
67818;BME280;54614;47.576;7.524;2023-04-30T07:49:39;98571.59;;;26.17;38.45
67818;BME280;54614;47.576;7.524;2023-04-30T07:52:05;98566.56;;;26.20;38.14
67818;BME280;54614;47.576;7.524;2023-04-30T07:54:35;98576.97;;;26.17;38.57
67818;BME280;54614;47.576;7.524;2023-04-30T07:57:04;98577.78;;;26.17;38.22
67818;BME280;54614;47.576;7.524;2023-04-30T07:59:30;98577.34;;;26.20;38.08
67818;BME280;54614;47.576;7.524;2023-04-30T08:01:56;98574.66;;;26.20;38.06
67818;BME280;54614;47.576;7.524;2023-04-30T08:04:22;98572.69;;;26.09;38.07
67818;BME280;54614;47.576;7.524;2023-04-30T08:06:48;98569.44;;;25.76;38.84
67818;BME280;54614;47.576;7.524;2023-04-30T08:09:14;98576.16;;;25.60;38.07
67818;BME280;54614;47.576;7.524;2023-04-30T08:11:41;98571.94;;;25.39;38.25
67818;BME280;54614;47.576;7.524;2023-04-30T08:14:07;98573.88;;;25.25;38.52
67818;BME280;54614;47.576;7.524;2023-04-30T08:16:32;98579.75;;;25.47;37.98
67818;BME280;54614;47.576;7.524;2023-04-30T08:18:58;98572.84;;;25.58;38.29
67818;BME280;54614;47.576;7.524;2023-04-30T08:21:25;98568.03;;;25.66;37.74
67818;BME280;54614;47.576;7.524;2023-04-30T08:23:53;98571.78;;;25.90;37.18
67818;BME280;54614;47.576;7.524;2023-04-30T08:26:19;98562.22;;;25.94;37.11
67818;BME280;54614;47.576;7.524;2023-04-30T08:28:45;98559.91;;;25.73;38.09
67818;BME280;54614;47.576;7.524;2023-04-30T08:31:12;98561.25;;;25.57;38.74
67818;BME280;54614;47.576;7.524;2023-04-30T08:33:37;98554.81;;;25.58;38.63
67818;BME280;54614;47.576;7.524;2023-04-30T08:36:04;98557.66;;;25.70;38.67
67818;BME280;54614;47.576;7.524;2023-04-30T08:38:30;98550.41;;;25.70;38.55
67818;BME280;54614;47.576;7.524;2023-04-30T08:41:12;98550.41;;;25.70;38.74
67818;BME280;54614;47.576;7.524;2023-04-30T08:43:39;98557.44;;;25.96;38.30
67818;BME280;54614;47.576;7.524;2023-04-30T08:46:05;98549.69;;;26.07;38.24
67818;BME280;54614;47.576;7.524;2023-04-30T08:48:32;98547.53;;;25.90;38.18
67818;BME280;54614;47.576;7.524;2023-04-30T08:51:00;98547.69;;;25.95;38.47
67818;BME280;54614;47.576;7.524;2023-04-30T08:53:27;98546.00;;;25.76;38.46
67818;BME280;54614;47.576;7.524;2023-04-30T08:55:53;98543.38;;;25.69;37.95
67818;BME280;54614;47.576;7.524;2023-04-30T08:58:19;98546.34;;;25.55;37.90
67818;BME280;54614;47.576;7.524;2023-04-30T09:00:45;98556.00;;;25.06;37.88
67818;BME280;54614;47.576;7.524;2023-04-30T09:03:11;98555.59;;;24.96;37.18
67818;BME280;54614;47.576;7.524;2023-04-30T09:05:37;98555.59;;;25.02;37.12
67818;BME280;54614;47.576;7.524;2023-04-30T09:08:03;98556.63;;;24.95;37.13
67818;BME280;54614;47.576;7.524;2023-04-30T09:10:32;98548.63;;;24.82;38.55
67818;BME280;54614;47.576;7.524;2023-04-30T09:13:07;98549.81;;;24.41;38.28
67818;BME280;54614;47.576;7.524;2023-04-30T09:15:35;98540.50;;;24.43;40.36
67818;BME280;54614;47.576;7.524;2023-04-30T09:18:14;98539.28;;;24.91;39.44
67818;BME280;54614;47.576;7.524;2023-04-30T09:20:59;98535.97;;;25.27;38.65
67818;BME280;54614;47.576;7.524;2023-04-30T09:23:30;98530.91;;;25.44;38.18
67818;BME280;54614;47.576;7.524;2023-04-30T09:25:56;98534.53;;;25.56;38.03
67818;BME280;54614;47.576;7.524;2023-04-30T09:28:22;98534.25;;;25.64;37.71
67818;BME280;54614;47.576;7.524;2023-04-30T09:30:52;98536.09;;;25.70;37.55
67818;BME280;54614;47.576;7.524;2023-04-30T09:33:18;98533.56;;;25.75;37.48
67818;BME280;54614;47.576;7.524;2023-04-30T09:35:44;98529.00;;;25.76;37.23
67818;BME280;54614;47.576;7.524;2023-04-30T09:38:31;98535.78;;;25.85;37.23
67818;BME280;54614;47.576;7.524;2023-04-30T09:40:59;98528.06;;;25.88;37.16
67818;BME280;54614;47.576;7.524;2023-04-30T09:43:27;98533.84;;;25.67;38.40
67818;BME280;54614;47.576;7.524;2023-04-30T09:45:57;98538.53;;;25.47;38.69
67818;BME280;54614;47.576;7.524;2023-04-30T09:48:24;98531.44;;;25.27;38.95
67818;BME280;54614;47.576;7.524;2023-04-30T09:50:54;98533.72;;;25.24;39.08
67818;BME280;54614;47.576;7.524;2023-04-30T09:53:20;98537.28;;;25.18;39.34
67818;BME280;54614;47.576;7.524;2023-04-30T09:55:49;98529.25;;;25.11;39.47
67818;BME280;54614;47.576;7.524;2023-04-30T09:58:18;98523.41;;;25.21;39.20
67818;BME280;54614;47.576;7.524;2023-04-30T10:00:49;98517.91;;;25.34;38.70
67818;BME280;54614;47.576;7.524;2023-04-30T10:03:15;98514.00;;;25.30;39.03
67818;BME280;54614;47.576;7.524;2023-04-30T10:05:46;98516.94;;;25.28;38.92
67818;BME280;54614;47.576;7.524;2023-04-30T10:11:17;98521.34;;;25.16;39.46
67818;BME280;54614;47.576;7.524;2023-04-30T10:14:03;98522.97;;;25.24;39.33
67818;BME280;54614;47.576;7.524;2023-04-30T10:16:47;98514.34;;;25.72;38.19
67818;BME280;54614;47.576;7.524;2023-04-30T10:19:30;98516.25;;;25.89;37.91
67818;BME280;54614;47.576;7.524;2023-04-30T10:21:59;98508.13;;;25.71;38.06
67818;BME280;54614;47.576;7.524;2023-04-30T10:24:26;98502.81;;;25.58;36.95
67818;BME280;54614;47.576;7.524;2023-04-30T10:26:53;98498.41;;;25.38;37.09
67818;BME280;54614;47.576;7.524;2023-04-30T10:29:20;98510.44;;;25.36;36.56
67818;BME280;54614;47.576;7.524;2023-04-30T10:31:48;98502.84;;;25.26;36.84
67818;BME280;54614;47.576;7.524;2023-04-30T10:34:54;98494.78;;;25.26;36.62
67818;BME280;54614;47.576;7.524;2023-04-30T10:37:47;98490.31;;;25.14;36.49
67818;BME280;54614;47.576;7.524;2023-04-30T10:40:17;98493.59;;;25.16;36.70
67818;BME280;54614;47.576;7.524;2023-04-30T10:42:52;98484.97;;;25.07;36.49
67818;BME280;54614;47.576;7.524;2023-04-30T10:45:37;98489.09;;;25.10;36.61
67818;BME280;54614;47.576;7.524;2023-04-30T10:48:06;98493.91;;;25.01;36.71
67818;BME280;54614;47.576;7.524;2023-04-30T10:50:39;98490.19;;;24.95;36.83
67818;BME280;54614;47.576;7.524;2023-04-30T10:53:06;98497.03;;;24.91;36.57
67818;BME280;54614;47.576;7.524;2023-04-30T10:55:32;98490.06;;;24.84;36.81
67818;BME280;54614;47.576;7.524;2023-04-30T10:57:58;98483.41;;;24.86;36.96
67818;BME280;54614;47.576;7.524;2023-04-30T11:00:27;98475.81;;;24.77;37.03
67818;BME280;54614;47.576;7.524;2023-04-30T11:03:02;98478.91;;;24.80;37.02
67818;BME280;54614;47.576;7.524;2023-04-30T11:05:37;98476.59;;;24.84;37.53
67818;BME280;54614;47.576;7.524;2023-04-30T11:08:04;98474.94;;;24.83;37.59
67818;BME280;54614;47.576;7.524;2023-04-30T11:10:35;98472.66;;;24.86;37.43
67818;BME280;54614;47.576;7.524;2023-04-30T11:13:06;98464.22;;;24.76;37.53
67818;BME280;54614;47.576;7.524;2023-04-30T11:15:40;98465.44;;;24.80;37.41
67818;BME280;54614;47.576;7.524;2023-04-30T11:18:07;98463.78;;;24.79;36.98
67818;BME280;54614;47.576;7.524;2023-04-30T11:20:51;98462.53;;;24.82;37.26
67818;BME280;54614;47.576;7.524;2023-04-30T11:23:22;98458.94;;;24.94;36.82
67818;BME280;54614;47.576;7.524;2023-04-30T11:25:48;98468.28;;;24.92;37.00
67818;BME280;54614;47.576;7.524;2023-04-30T11:28:22;98466.91;;;24.76;37.09
67818;BME280;54614;47.576;7.524;2023-04-30T11:30:57;98465.91;;;24.70;37.17
67818;BME280;54614;47.576;7.524;2023-04-30T11:33:31;98465.94;;;24.64;37.15
67818;BME280;54614;47.576;7.524;2023-04-30T11:35:59;98468.03;;;24.62;36.75
67818;BME280;54614;47.576;7.524;2023-04-30T11:38:33;98463.63;;;24.74;36.89
67818;BME280;54614;47.576;7.524;2023-04-30T11:41:01;98456.19;;;24.69;36.65
67818;BME280;54614;47.576;7.524;2023-04-30T11:43:32;98462.84;;;24.67;36.79
67818;BME280;54614;47.576;7.524;2023-04-30T11:46:17;98454.16;;;24.65;37.03
67818;BME280;54614;47.576;7.524;2023-04-30T11:48:46;98454.44;;;24.50;36.92
67818;BME280;54614;47.576;7.524;2023-04-30T11:51:21;98458.09;;;24.62;36.55
67818;BME280;54614;47.576;7.524;2023-04-30T11:53:51;98445.13;;;24.53;36.86
67818;BME280;54614;47.576;7.524;2023-04-30T11:56:18;98449.25;;;24.55;36.18
67818;BME280;54614;47.576;7.524;2023-04-30T11:58:47;98445.97;;;24.47;36.57
67818;BME280;54614;47.576;7.524;2023-04-30T12:01:13;98444.28;;;24.52;36.24
67818;BME280;54614;47.576;7.524;2023-04-30T12:03:46;98456.78;;;24.33;38.60
67818;BME280;54614;47.576;7.524;2023-04-30T12:06:24;98451.63;;;24.32;38.35
67818;BME280;54614;47.576;7.524;2023-04-30T12:08:55;98457.72;;;23.94;38.01
67818;BME280;54614;47.576;7.524;2023-04-30T12:11:24;98443.97;;;24.22;37.28
67818;BME280;54614;47.576;7.524;2023-04-30T12:14:10;98443.53;;;24.38;37.06
67818;BME280;54614;47.576;7.524;2023-04-30T12:19:06;98442.25;;;24.48;36.82
67818;BME280;54614;47.576;7.524;2023-04-30T12:21:33;98445.53;;;24.50;36.16
67818;BME280;54614;47.576;7.524;2023-04-30T12:23:59;98433.78;;;24.44;36.16
67818;BME280;54614;47.576;7.524;2023-04-30T12:26:37;98433.31;;;24.54;36.24
67818;BME280;54614;47.576;7.524;2023-04-30T12:29:30;98437.66;;;24.55;36.48
67818;BME280;54614;47.576;7.524;2023-04-30T12:31:58;98433.19;;;24.42;36.75
67818;BME280;54614;47.576;7.524;2023-04-30T12:34:26;98438.97;;;24.39;36.60
67818;BME280;54614;47.576;7.524;2023-04-30T12:36:56;98436.72;;;24.36;36.86
67818;BME280;54614;47.576;7.524;2023-04-30T12:39:23;98445.84;;;24.28;36.99
67818;BME280;54614;47.576;7.524;2023-04-30T12:41:49;98437.78;;;24.28;37.22
67818;BME280;54614;47.576;7.524;2023-04-30T12:44:26;98439.44;;;24.29;37.35
67818;BME280;54614;47.576;7.524;2023-04-30T12:46:57;98446.00;;;24.40;37.20
67818;BME280;54614;47.576;7.524;2023-04-30T12:49:32;98438.09;;;24.52;37.41
67818;BME280;54614;47.576;7.524;2023-04-30T12:52:10;98439.41;;;24.74;36.64
67818;BME280;54614;47.576;7.524;2023-04-30T12:54:38;98432.34;;;24.80;36.91
67818;BME280;54614;47.576;7.524;2023-04-30T12:57:10;98432.84;;;24.63;37.18
67818;BME280;54614;47.576;7.524;2023-04-30T12:59:59;98440.00;;;24.38;37.74
67818;BME280;54614;47.576;7.524;2023-04-30T13:02:28;98436.13;;;24.27;37.92
67818;BME280;54614;47.576;7.524;2023-04-30T13:04:56;98443.97;;;24.29;37.69
67818;BME280;54614;47.576;7.524;2023-04-30T13:07:25;98434.81;;;24.43;37.54
67818;BME280;54614;47.576;7.524;2023-04-30T13:09:51;98432.75;;;24.45;37.57
67818;BME280;54614;47.576;7.524;2023-04-30T13:12:17;98433.59;;;24.39;38.11
67818;BME280;54614;47.576;7.524;2023-04-30T13:14:43;98428.09;;;24.65;37.61
67818;BME280;54614;47.576;7.524;2023-04-30T13:17:09;98428.69;;;25.05;36.74
67818;BME280;54614;47.576;7.524;2023-04-30T13:19:38;98420.28;;;25.20;36.29
67818;BME280;54614;47.576;7.524;2023-04-30T13:22:04;98416.88;;;25.31;36.48
67818;BME280;54614;47.576;7.524;2023-04-30T13:24:29;98417.63;;;25.38;36.37
67818;BME280;54614;47.576;7.524;2023-04-30T13:26:55;98422.53;;;25.48;36.08
67818;BME280;54614;47.576;7.524;2023-04-30T13:29:23;98410.53;;;25.44;36.52
67818;BME280;54614;47.576;7.524;2023-04-30T13:31:49;98410.03;;;25.79;35.97